sensor_id;sensor_type;location;lat;lon;timestamp;P1;durP1;ratioP1;P2;durP2;ratioP2
14048;SDS011;7099;53.922;10.728;2024-03-23T01:55:27;21.40;;;3.43;;
14048;SDS011;7099;53.922;10.728;2024-03-23T01:59:32;24.83;;;3.87;;
14048;SDS011;7099;53.922;10.728;2024-03-23T02:03:37;17.43;;;3.60;;
14048;SDS011;7099;53.922;10.728;2024-03-23T02:07:42;20.93;;;4.07;;
14048;SDS011;7099;53.922;10.728;2024-03-23T02:11:46;21.80;;;4.47;;
14048;SDS011;7099;53.922;10.728;2024-03-23T02:15:51;18.50;;;3.77;;
14048;SDS011;7099;53.922;10.728;2024-03-23T02:19:55;30.60;;;4.03;;
14048;SDS011;7099;53.922;10.728;2024-03-23T02:24:00;16.50;;;2.97;;
14048;SDS011;7099;53.922;10.728;2024-03-23T02:28:04;21.57;;;3.57;;
14048;SDS011;7099;53.922;10.728;2024-03-23T02:32:09;20.00;;;3.40;;
14048;SDS011;7099;53.922;10.728;2024-03-23T02:36:13;29.70;;;5.00;;
14048;SDS011;7099;53.922;10.728;2024-03-23T02:40:19;21.27;;;3.87;;
14048;SDS011;7099;53.922;10.728;2024-03-23T02:44:24;26.30;;;3.80;;
14048;SDS011;7099;53.922;10.728;2024-03-23T02:48:29;28.63;;;3.40;;
14048;SDS011;7099;53.922;10.728;2024-03-23T02:52:33;21.57;;;4.53;;
14048;SDS011;7099;53.922;10.728;2024-03-23T03:08:52;22.97;;;4.60;;
14048;SDS011;7099;53.922;10.728;2024-03-23T03:12:57;20.40;;;4.10;;
14048;SDS011;7099;53.922;10.728;2024-03-23T03:17:01;21.53;;;3.80;;
14048;SDS011;7099;53.922;10.728;2024-03-23T03:21:06;24.00;;;4.43;;
14048;SDS011;7099;53.922;10.728;2024-03-23T03:25:14;24.53;;;3.40;;
14048;SDS011;7099;53.922;10.728;2024-03-23T03:29:19;24.43;;;4.63;;
14048;SDS011;7099;53.922;10.728;2024-03-23T03:33:23;24.90;;;5.23;;
14048;SDS011;7099;53.922;10.728;2024-03-23T03:37:28;24.70;;;4.30;;
14048;SDS011;7099;53.922;10.728;2024-03-23T03:41:33;24.67;;;3.50;;
14048;SDS011;7099;53.922;10.728;2024-03-23T03:45:37;28.40;;;4.60;;
14048;SDS011;7099;53.922;10.728;2024-03-23T03:49:42;27.03;;;4.70;;
14048;SDS011;7099;53.922;10.728;2024-03-23T03:53:46;22.87;;;3.83;;
14048;SDS011;7099;53.922;10.728;2024-03-23T03:57:51;18.43;;;3.07;;
14048;SDS011;7099;53.922;10.728;2024-03-23T04:01:55;27.53;;;3.90;;
14048;SDS011;7099;53.922;10.728;2024-03-23T04:06:00;26.97;;;4.30;;
14048;SDS011;7099;53.922;10.728;2024-03-23T04:10:05;24.27;;;3.30;;
14048;SDS011;7099;53.922;10.728;2024-03-23T04:14:11;15.53;;;3.60;;
14048;SDS011;7099;53.922;10.728;2024-03-23T04:22:20;18.40;;;3.20;;
14048;SDS011;7099;53.922;10.728;2024-03-23T04:26:25;30.23;;;3.87;;
14048;SDS011;7099;53.922;10.728;2024-03-23T04:30:29;20.60;;;3.50;;
14048;SDS011;7099;53.922;10.728;2024-03-23T04:34:35;31.77;;;4.27;;
14048;SDS011;7099;53.922;10.728;2024-03-23T04:42:45;18.23;;;3.50;;
14048;SDS011;7099;53.922;10.728;2024-03-23T04:46:49;21.40;;;4.00;;
14048;SDS011;7099;53.922;10.728;2024-03-23T04:50:55;20.00;;;3.63;;
14048;SDS011;7099;53.922;10.728;2024-03-23T04:55:01;16.47;;;3.40;;
14048;SDS011;7099;53.922;10.728;2024-03-23T04:59:06;15.37;;;4.10;;
14048;SDS011;7099;53.922;10.728;2024-03-23T05:03:10;15.60;;;3.10;;
14048;SDS011;7099;53.922;10.728;2024-03-23T05:07:15;26.27;;;4.50;;
14048;SDS011;7099;53.922;10.728;2024-03-23T05:11:19;18.40;;;3.67;;
14048;SDS011;7099;53.922;10.728;2024-03-23T05:15:24;16.73;;;3.07;;
14048;SDS011;7099;53.922;10.728;2024-03-23T05:19:29;20.37;;;3.30;;
14048;SDS011;7099;53.922;10.728;2024-03-23T05:23:34;21.47;;;4.47;;
14048;SDS011;7099;53.922;10.728;2024-03-23T05:27:39;22.80;;;3.77;;
14048;SDS011;7099;53.922;10.728;2024-03-23T05:31:43;14.30;;;3.83;;
14048;SDS011;7099;53.922;10.728;2024-03-23T05:35:56;24.63;;;4.47;;
14048;SDS011;7099;53.922;10.728;2024-03-23T05:40:05;26.43;;;4.20;;
14048;SDS011;7099;53.922;10.728;2024-03-23T05:44:12;29.40;;;4.20;;
14048;SDS011;7099;53.922;10.728;2024-03-23T05:48:16;26.87;;;4.73;;
14048;SDS011;7099;53.922;10.728;2024-03-23T05:52:21;28.33;;;4.40;;
14048;SDS011;7099;53.922;10.728;2024-03-23T05:56:25;18.03;;;4.03;;
14048;SDS011;7099;53.922;10.728;2024-03-23T06:00:30;23.50;;;4.67;;
14048;SDS011;7099;53.922;10.728;2024-03-23T06:04:34;14.93;;;4.40;;
14048;SDS011;7099;53.922;10.728;2024-03-23T06:08:39;21.30;;;4.37;;
14048;SDS011;7099;53.922;10.728;2024-03-23T06:12:45;24.47;;;3.87;;
14048;SDS011;7099;53.922;10.728;2024-03-23T06:16:50;21.47;;;4.60;;
14048;SDS011;7099;53.922;10.728;2024-03-23T06:20:55;20.60;;;3.87;;
14048;SDS011;7099;53.922;10.728;2024-03-23T06:24:59;19.87;;;4.10;;
14048;SDS011;7099;53.922;10.728;2024-03-23T06:29:04;28.30;;;4.60;;
14048;SDS011;7099;53.922;10.728;2024-03-23T06:33:09;32.63;;;5.07;;
14048;SDS011;7099;53.922;10.728;2024-03-23T06:37:13;28.07;;;4.20;;
14048;SDS011;7099;53.922;10.728;2024-03-23T06:41:18;29.57;;;4.87;;
14048;SDS011;7099;53.922;10.728;2024-03-23T06:45:23;27.95;;;5.20;;
14048;SDS011;7099;53.922;10.728;2024-03-23T06:49:28;29.83;;;4.73;;
14048;SDS011;7099;53.922;10.728;2024-03-23T06:53:33;22.20;;;4.67;;
14048;SDS011;7099;53.922;10.728;2024-03-23T06:57:37;22.63;;;4.20;;
14048;SDS011;7099;53.922;10.728;2024-03-23T07:01:42;22.47;;;4.50;;
14048;SDS011;7099;53.922;10.728;2024-03-23T07:05:46;26.47;;;4.20;;
14048;SDS011;7099;53.922;10.728;2024-03-23T07:09:51;23.87;;;4.70;;
14048;SDS011;7099;53.922;10.728;2024-03-23T07:13:56;17.03;;;3.90;;
14048;SDS011;7099;53.922;10.728;2024-03-23T07:18:00;17.20;;;4.13;;
14048;SDS011;7099;53.922;10.728;2024-03-23T07:22:05;16.97;;;3.50;;
14048;SDS011;7099;53.922;10.728;2024-03-23T07:30:14;21.07;;;3.67;;
14048;SDS011;7099;53.922;10.728;2024-03-23T07:34:19;17.97;;;3.73;;
14048;SDS011;7099;53.922;10.728;2024-03-23T07:38:24;23.33;;;3.80;;
14048;SDS011;7099;53.922;10.728;2024-03-23T07:42:28;30.33;;;4.40;;
14048;SDS011;7099;53.922;10.728;2024-03-23T07:46:33;19.80;;;3.60;;
14048;SDS011;7099;53.922;10.728;2024-03-23T07:50:37;17.23;;;3.43;;
14048;SDS011;7099;53.922;10.728;2024-03-23T07:54:42;22.07;;;4.37;;
14048;SDS011;7099;53.922;10.728;2024-03-23T07:58:47;20.17;;;3.93;;
14048;SDS011;7099;53.922;10.728;2024-03-23T08:02:52;18.70;;;4.27;;
14048;SDS011;7099;53.922;10.728;2024-03-23T08:06:56;24.87;;;4.20;;
14048;SDS011;7099;53.922;10.728;2024-03-23T08:11:01;17.50;;;4.27;;
14048;SDS011;7099;53.922;10.728;2024-03-23T08:15:06;19.37;;;3.00;;
14048;SDS011;7099;53.922;10.728;2024-03-23T08:19:10;17.60;;;3.60;;
14048;SDS011;7099;53.922;10.728;2024-03-23T08:23:15;20.97;;;3.63;;
14048;SDS011;7099;53.922;10.728;2024-03-23T08:27:19;14.80;;;2.77;;
14048;SDS011;7099;53.922;10.728;2024-03-23T08:31:24;22.47;;;3.50;;
14048;SDS011;7099;53.922;10.728;2024-03-23T08:35:28;15.40;;;3.80;;
14048;SDS011;7099;53.922;10.728;2024-03-23T08:39:33;18.47;;;3.17;;
14048;SDS011;7099;53.922;10.728;2024-03-23T08:43:41;20.30;;;3.30;;
14048;SDS011;7099;53.922;10.728;2024-03-23T08:47:46;15.20;;;3.57;;
14048;SDS011;7099;53.922;10.728;2024-03-23T08:51:50;16.87;;;3.80;;
14048;SDS011;7099;53.922;10.728;2024-03-23T08:55:59;13.13;;;3.53;;
14048;SDS011;7099;53.922;10.728;2024-03-23T09:00:04;19.97;;;4.20;;
14048;SDS011;7099;53.922;10.728;2024-03-23T09:08:17;28.07;;;3.90;;
14048;SDS011;7099;53.922;10.728;2024-03-23T09:12:22;13.57;;;3.43;;
14048;SDS011;7099;53.922;10.728;2024-03-23T09:16:27;16.03;;;4.40;;
14048;SDS011;7099;53.922;10.728;2024-03-23T09:20:34;19.10;;;3.93;;
14048;SDS011;7099;53.922;10.728;2024-03-23T09:28:43;14.77;;;3.40;;
14048;SDS011;7099;53.922;10.728;2024-03-23T09:32:48;10.83;;;3.07;;
14048;SDS011;7099;53.922;10.728;2024-03-23T09:36:53;13.87;;;3.30;;
14048;SDS011;7099;53.922;10.728;2024-03-23T09:53:14;12.83;;;3.20;;
14048;SDS011;7099;53.922;10.728;2024-03-23T09:57:18;13.13;;;2.30;;
14048;SDS011;7099;53.922;10.728;2024-03-23T10:01:23;14.53;;;2.73;;
14048;SDS011;7099;53.922;10.728;2024-03-23T10:13:37;12.77;;;3.20;;
14048;SDS011;7099;53.922;10.728;2024-03-23T10:17:47;9.00;;;2.60;;
14048;SDS011;7099;53.922;10.728;2024-03-23T10:21:52;16.67;;;2.90;;
14048;SDS011;7099;53.922;10.728;2024-03-23T10:26:14;10.53;;;2.27;;
14048;SDS011;7099;53.922;10.728;2024-03-23T10:30:26;18.67;;;3.30;;
14048;SDS011;7099;53.922;10.728;2024-03-23T10:34:31;10.70;;;2.30;;
14048;SDS011;7099;53.922;10.728;2024-03-23T10:38:36;9.73;;;2.60;;
14048;SDS011;7099;53.922;10.728;2024-03-23T10:42:41;11.10;;;2.10;;
14048;SDS011;7099;53.922;10.728;2024-03-23T10:46:46;10.00;;;2.10;;
14048;SDS011;7099;53.922;10.728;2024-03-23T10:50:51;10.77;;;2.83;;
14048;SDS011;7099;53.922;10.728;2024-03-23T10:54:57;12.40;;;3.10;;
14048;SDS011;7099;53.922;10.728;2024-03-23T10:59:02;12.87;;;2.07;;
14048;SDS011;7099;53.922;10.728;2024-03-23T11:03:30;6.70;;;1.90;;
14048;SDS011;7099;53.922;10.728;2024-03-23T11:07:35;8.80;;;2.17;;
14048;SDS011;7099;53.922;10.728;2024-03-23T11:11:39;13.80;;;2.47;;
14048;SDS011;7099;53.922;10.728;2024-03-23T11:15:44;9.23;;;2.23;;
14048;SDS011;7099;53.922;10.728;2024-03-23T11:19:58;11.23;;;2.17;;
14048;SDS011;7099;53.922;10.728;2024-03-23T11:24:14;14.27;;;1.50;;
14048;SDS011;7099;53.922;10.728;2024-03-23T11:28:18;6.23;;;2.10;;
14048;SDS011;7099;53.922;10.728;2024-03-23T11:32:23;5.73;;;1.53;;
14048;SDS011;7099;53.922;10.728;2024-03-23T11:36:28;10.20;;;1.60;;
14048;SDS011;7099;53.922;10.728;2024-03-23T11:40:33;8.50;;;2.47;;
14048;SDS011;7099;53.922;10.728;2024-03-23T11:44:43;5.43;;;1.70;;
14048;SDS011;7099;53.922;10.728;2024-03-23T11:48:50;6.30;;;1.90;;
14048;SDS011;7099;53.922;10.728;2024-03-23T11:57:31;5.60;;;1.47;;
14048;SDS011;7099;53.922;10.728;2024-03-23T12:01:36;6.40;;;1.70;;
14048;SDS011;7099;53.922;10.728;2024-03-23T12:05:41;5.27;;;1.40;;
14048;SDS011;7099;53.922;10.728;2024-03-23T12:10:02;4.37;;;1.37;;
14048;SDS011;7099;53.922;10.728;2024-03-23T12:14:08;11.83;;;2.40;;
14048;SDS011;7099;53.922;10.728;2024-03-23T12:18:12;7.13;;;1.43;;
14048;SDS011;7099;53.922;10.728;2024-03-23T12:22:20;2.43;;;1.10;;
14048;SDS011;7099;53.922;10.728;2024-03-23T12:26:24;9.70;;;1.30;;
14048;SDS011;7099;53.922;10.728;2024-03-23T12:30:29;4.33;;;1.13;;
14048;SDS011;7099;53.922;10.728;2024-03-23T12:34:33;6.77;;;1.20;;
14048;SDS011;7099;53.922;10.728;2024-03-23T12:38:38;5.90;;;1.67;;
14048;SDS011;7099;53.922;10.728;2024-03-23T12:42:43;3.20;;;1.37;;
14048;SDS011;7099;53.922;10.728;2024-03-23T12:46:47;4.10;;;1.37;;
14048;SDS011;7099;53.922;10.728;2024-03-23T12:50:55;6.27;;;1.63;;
14048;SDS011;7099;53.922;10.728;2024-03-23T12:55:00;9.37;;;1.60;;
14048;SDS011;7099;53.922;10.728;2024-03-23T12:59:04;7.43;;;1.70;;
14048;SDS011;7099;53.922;10.728;2024-03-23T13:03:10;6.70;;;1.50;;
14048;SDS011;7099;53.922;10.728;2024-03-23T13:07:19;6.23;;;1.67;;
14048;SDS011;7099;53.922;10.728;2024-03-23T13:11:25;3.13;;;1.20;;
14048;SDS011;7099;53.922;10.728;2024-03-23T13:15:30;2.83;;;1.20;;
14048;SDS011;7099;53.922;10.728;2024-03-23T13:19:35;2.90;;;1.40;;
14048;SDS011;7099;53.922;10.728;2024-03-23T13:23:39;4.00;;;1.00;;
14048;SDS011;7099;53.922;10.728;2024-03-23T13:27:46;6.00;;;1.10;;
14048;SDS011;7099;53.922;10.728;2024-03-23T13:31:52;4.53;;;1.43;;
14048;SDS011;7099;53.922;10.728;2024-03-23T13:35:57;4.50;;;1.80;;
14048;SDS011;7099;53.922;10.728;2024-03-23T13:40:02;9.30;;;1.50;;
14048;SDS011;7099;53.922;10.728;2024-03-23T13:44:07;6.33;;;1.57;;
14048;SDS011;7099;53.922;10.728;2024-03-23T13:48:16;5.93;;;1.33;;
14048;SDS011;7099;53.922;10.728;2024-03-23T13:52:22;5.33;;;1.50;;
14048;SDS011;7099;53.922;10.728;2024-03-23T13:56:29;7.67;;;1.40;;
14048;SDS011;7099;53.922;10.728;2024-03-23T14:00:34;3.10;;;1.53;;
14048;SDS011;7099;53.922;10.728;2024-03-23T14:04:38;5.60;;;1.33;;
14048;SDS011;7099;53.922;10.728;2024-03-23T14:08:43;1.77;;;1.00;;
14048;SDS011;7099;53.922;10.728;2024-03-23T14:12:47;2.40;;;1.17;;
14048;SDS011;7099;53.922;10.728;2024-03-23T14:16:52;3.83;;;1.30;;
14048;SDS011;7099;53.922;10.728;2024-03-23T14:21:00;5.07;;;1.13;;
14048;SDS011;7099;53.922;10.728;2024-03-23T14:25:05;7.70;;;1.83;;
14048;SDS011;7099;53.922;10.728;2024-03-23T14:29:10;10.10;;;1.63;;
14048;SDS011;7099;53.922;10.728;2024-03-23T14:33:15;4.00;;;1.80;;
14048;SDS011;7099;53.922;10.728;2024-03-23T14:37:20;3.50;;;1.23;;
14048;SDS011;7099;53.922;10.728;2024-03-23T14:41:25;3.47;;;0.97;;
14048;SDS011;7099;53.922;10.728;2024-03-23T14:45:29;3.50;;;1.20;;
14048;SDS011;7099;53.922;10.728;2024-03-23T14:49:34;2.20;;;1.40;;
14048;SDS011;7099;53.922;10.728;2024-03-23T14:53:40;6.43;;;1.50;;
14048;SDS011;7099;53.922;10.728;2024-03-23T14:57:49;5.43;;;1.20;;
14048;SDS011;7099;53.922;10.728;2024-03-23T15:01:55;6.57;;;1.60;;
14048;SDS011;7099;53.922;10.728;2024-03-23T15:05:59;4.27;;;1.33;;
14048;SDS011;7099;53.922;10.728;2024-03-23T15:10:06;3.13;;;1.03;;
14048;SDS011;7099;53.922;10.728;2024-03-23T15:14:12;6.23;;;1.50;;
14048;SDS011;7099;53.922;10.728;2024-03-23T15:18:16;4.67;;;1.27;;
14048;SDS011;7099;53.922;10.728;2024-03-23T15:22:29;2.57;;;1.30;;
14048;SDS011;7099;53.922;10.728;2024-03-23T15:26:33;5.10;;;1.43;;
14048;SDS011;7099;53.922;10.728;2024-03-23T15:30:38;7.20;;;2.10;;
14048;SDS011;7099;53.922;10.728;2024-03-23T15:34:42;6.10;;;1.30;;
14048;SDS011;7099;53.922;10.728;2024-03-23T15:38:47;4.87;;;1.30;;
14048;SDS011;7099;53.922;10.728;2024-03-23T15:42:53;3.20;;;1.13;;
14048;SDS011;7099;53.922;10.728;2024-03-23T15:46:57;4.57;;;1.43;;
14048;SDS011;7099;53.922;10.728;2024-03-23T15:51:02;6.37;;;1.70;;
14048;SDS011;7099;53.922;10.728;2024-03-23T15:55:08;7.00;;;1.80;;
14048;SDS011;7099;53.922;10.728;2024-03-23T15:59:14;2.90;;;1.23;;
14048;SDS011;7099;53.922;10.728;2024-03-23T16:03:18;7.13;;;1.50;;
14048;SDS011;7099;53.922;10.728;2024-03-23T16:07:23;4.20;;;1.20;;
14048;SDS011;7099;53.922;10.728;2024-03-23T16:11:28;2.80;;;1.30;;
14048;SDS011;7099;53.922;10.728;2024-03-23T16:15:33;10.67;;;1.60;;
14048;SDS011;7099;53.922;10.728;2024-03-23T16:19:38;4.97;;;1.87;;
14048;SDS011;7099;53.922;10.728;2024-03-23T16:23:42;8.43;;;1.63;;
14048;SDS011;7099;53.922;10.728;2024-03-23T16:27:50;14.43;;;2.70;;
14048;SDS011;7099;53.922;10.728;2024-03-23T16:31:54;8.80;;;2.03;;
14048;SDS011;7099;53.922;10.728;2024-03-23T16:36:00;6.30;;;2.00;;
14048;SDS011;7099;53.922;10.728;2024-03-23T16:40:09;5.20;;;1.80;;
14048;SDS011;7099;53.922;10.728;2024-03-23T16:44:15;6.87;;;2.23;;
14048;SDS011;7099;53.922;10.728;2024-03-23T16:48:20;5.50;;;1.60;;
14048;SDS011;7099;53.922;10.728;2024-03-23T16:52:27;5.27;;;1.70;;
14048;SDS011;7099;53.922;10.728;2024-03-23T16:56:31;10.27;;;1.73;;
14048;SDS011;7099;53.922;10.728;2024-03-23T17:00:36;6.30;;;1.67;;
14048;SDS011;7099;53.922;10.728;2024-03-23T17:04:41;8.27;;;1.77;;
14048;SDS011;7099;53.922;10.728;2024-03-23T17:08:45;4.40;;;1.30;;
14048;SDS011;7099;53.922;10.728;2024-03-23T17:12:54;4.90;;;1.67;;
14048;SDS011;7099;53.922;10.728;2024-03-23T17:16:58;5.80;;;1.40;;
14048;SDS011;7099;53.922;10.728;2024-03-23T17:21:03;5.33;;;1.70;;
14048;SDS011;7099;53.922;10.728;2024-03-23T17:25:07;4.47;;;1.47;;
14048;SDS011;7099;53.922;10.728;2024-03-23T17:29:12;3.20;;;1.20;;
14048;SDS011;7099;53.922;10.728;2024-03-23T17:33:18;4.20;;;1.53;;
14048;SDS011;7099;53.922;10.728;2024-03-23T17:37:23;6.23;;;2.30;;
14048;SDS011;7099;53.922;10.728;2024-03-23T17:41:28;4.75;;;1.65;;
14048;SDS011;7099;53.922;10.728;2024-03-23T17:45:32;8.90;;;2.37;;
14048;SDS011;7099;53.922;10.728;2024-03-23T17:49:37;10.43;;;2.10;;
14048;SDS011;7099;53.922;10.728;2024-03-23T17:53:41;4.73;;;1.80;;
14048;SDS011;7099;53.922;10.728;2024-03-23T17:57:47;4.23;;;1.50;;
14048;SDS011;7099;53.922;10.728;2024-03-23T18:01:52;6.73;;;2.00;;
14048;SDS011;7099;53.922;10.728;2024-03-23T18:05:56;3.40;;;1.30;;
14048;SDS011;7099;53.922;10.728;2024-03-23T18:10:01;4.93;;;1.60;;
14048;SDS011;7099;53.922;10.728;2024-03-23T18:14:05;4.40;;;1.47;;
14048;SDS011;7099;53.922;10.728;2024-03-23T18:18:10;3.33;;;1.50;;
14048;SDS011;7099;53.922;10.728;2024-03-23T18:22:14;3.00;;;1.50;;
14048;SDS011;7099;53.922;10.728;2024-03-23T18:26:19;3.93;;;1.53;;
14048;SDS011;7099;53.922;10.728;2024-03-23T18:30:23;5.30;;;1.30;;
14048;SDS011;7099;53.922;10.728;2024-03-23T18:34:28;6.93;;;1.40;;
14048;SDS011;7099;53.922;10.728;2024-03-23T18:38:32;7.43;;;1.70;;
14048;SDS011;7099;53.922;10.728;2024-03-23T18:42:37;4.17;;;1.33;;
14048;SDS011;7099;53.922;10.728;2024-03-23T18:46:43;6.03;;;1.50;;
14048;SDS011;7099;53.922;10.728;2024-03-23T18:50:47;3.20;;;1.67;;
14048;SDS011;7099;53.922;10.728;2024-03-23T18:54:52;3.70;;;1.50;;
14048;SDS011;7099;53.922;10.728;2024-03-23T18:58:58;2.43;;;1.13;;
14048;SDS011;7099;53.922;10.728;2024-03-23T19:03:02;5.23;;;1.50;;
14048;SDS011;7099;53.922;10.728;2024-03-23T19:07:07;3.00;;;1.63;;
14048;SDS011;7099;53.922;10.728;2024-03-23T19:11:12;3.27;;;1.53;;
14048;SDS011;7099;53.922;10.728;2024-03-23T19:15:16;6.73;;;1.83;;
14048;SDS011;7099;53.922;10.728;2024-03-23T19:19:21;4.40;;;1.47;;
14048;SDS011;7099;53.922;10.728;2024-03-23T19:23:26;3.07;;;1.30;;
14048;SDS011;7099;53.922;10.728;2024-03-23T19:27:34;2.60;;;1.40;;
14048;SDS011;7099;53.922;10.728;2024-03-23T19:31:42;2.80;;;1.43;;
14048;SDS011;7099;53.922;10.728;2024-03-23T19:35:52;3.20;;;1.57;;
14048;SDS011;7099;53.922;10.728;2024-03-23T19:40:01;9.47;;;1.80;;
14048;SDS011;7099;53.922;10.728;2024-03-23T19:44:06;5.00;;;1.93;;
14048;SDS011;7099;53.922;10.728;2024-03-23T19:48:12;7.20;;;2.50;;
14048;SDS011;7099;53.922;10.728;2024-03-23T19:52:17;5.00;;;2.00;;
14048;SDS011;7099;53.922;10.728;2024-03-23T19:56:21;6.70;;;1.90;;
14048;SDS011;7099;53.922;10.728;2024-03-23T20:00:26;7.83;;;2.37;;
14048;SDS011;7099;53.922;10.728;2024-03-23T20:08:35;4.00;;;1.60;;
14048;SDS011;7099;53.922;10.728;2024-03-23T20:12:39;3.27;;;1.50;;
14048;SDS011;7099;53.922;10.728;2024-03-23T20:16:44;5.40;;;1.90;;
14048;SDS011;7099;53.922;10.728;2024-03-23T20:37:07;2.70;;;1.50;;
14048;SDS011;7099;53.922;10.728;2024-03-23T20:49:21;4.23;;;1.70;;
14048;SDS011;7099;53.922;10.728;2024-03-23T21:01:35;4.03;;;1.87;;
14048;SDS011;7099;53.922;10.728;2024-03-23T21:05:40;5.30;;;2.40;;
14048;SDS011;7099;53.922;10.728;2024-03-23T21:09:46;6.40;;;2.10;;
14048;SDS011;7099;53.922;10.728;2024-03-23T21:13:51;2.50;;;1.80;;
14048;SDS011;7099;53.922;10.728;2024-03-23T21:17:56;4.80;;;2.33;;
14048;SDS011;7099;53.922;10.728;2024-03-23T21:22:00;13.40;;;2.00;;
14048;SDS011;7099;53.922;10.728;2024-03-23T21:26:06;5.70;;;2.03;;
14048;SDS011;7099;53.922;10.728;2024-03-23T21:30:12;3.90;;;1.90;;
14048;SDS011;7099;53.922;10.728;2024-03-23T21:34:18;6.63;;;2.50;;
14048;SDS011;7099;53.922;10.728;2024-03-23T21:38:23;7.83;;;2.13;;
14048;SDS011;7099;53.922;10.728;2024-03-23T21:42:28;4.50;;;1.70;;
14048;SDS011;7099;53.922;10.728;2024-03-23T21:46:32;9.97;;;2.27;;
14048;SDS011;7099;53.922;10.728;2024-03-23T21:50:37;7.20;;;2.53;;
14048;SDS011;7099;53.922;10.728;2024-03-23T21:54:41;10.27;;;2.60;;
14048;SDS011;7099;53.922;10.728;2024-03-23T21:58:46;6.03;;;2.30;;
14048;SDS011;7099;53.922;10.728;2024-03-23T22:02:50;5.33;;;2.47;;
14048;SDS011;7099;53.922;10.728;2024-03-23T22:06:55;5.57;;;2.30;;
14048;SDS011;7099;53.922;10.728;2024-03-23T22:11:00;4.43;;;2.67;;
14048;SDS011;7099;53.922;10.728;2024-03-23T22:15:04;6.60;;;2.70;;
14048;SDS011;7099;53.922;10.728;2024-03-23T22:19:10;6.30;;;2.70;;
14048;SDS011;7099;53.922;10.728;2024-03-23T22:23:14;11.33;;;3.10;;
14048;SDS011;7099;53.922;10.728;2024-03-23T22:27:19;6.90;;;2.97;;
14048;SDS011;7099;53.922;10.728;2024-03-23T22:31:23;8.33;;;3.00;;
14048;SDS011;7099;53.922;10.728;2024-03-23T22:35:28;9.07;;;3.10;;
14048;SDS011;7099;53.922;10.728;2024-03-23T22:39:32;6.90;;;2.40;;
14048;SDS011;7099;53.922;10.728;2024-03-23T22:43:37;8.67;;;2.97;;
14048;SDS011;7099;53.922;10.728;2024-03-23T22:47:42;10.77;;;3.00;;
14048;SDS011;7099;53.922;10.728;2024-03-23T22:51:46;7.57;;;2.77;;
14048;SDS011;7099;53.922;10.728;2024-03-23T22:55:51;5.13;;;2.60;;
14048;SDS011;7099;53.922;10.728;2024-03-23T22:59:57;8.10;;;2.87;;
14048;SDS011;7099;53.922;10.728;2024-03-23T23:04:02;5.53;;;2.90;;
14048;SDS011;7099;53.922;10.728;2024-03-23T23:08:07;5.13;;;2.40;;
14048;SDS011;7099;53.922;10.728;2024-03-23T23:12:15;11.27;;;2.80;;
14048;SDS011;7099;53.922;10.728;2024-03-23T23:24:28;6.20;;;2.23;;
14048;SDS011;7099;53.922;10.728;2024-03-23T23:28:32;8.03;;;2.07;;
14048;SDS011;7099;53.922;10.728;2024-03-23T23:32:37;10.93;;;2.47;;
14048;SDS011;7099;53.922;10.728;2024-03-23T23:36:41;7.50;;;2.77;;
14048;SDS011;7099;53.922;10.728;2024-03-23T23:40:46;5.43;;;2.43;;
14048;SDS011;7099;53.922;10.728;2024-03-23T23:44:50;3.43;;;2.10;;
14048;SDS011;7099;53.922;10.728;2024-03-23T23:48:55;7.87;;;2.13;;
